Terminal Aerodrome Forecast
Issued by NWS

Home | Current Version | Previous Version | Text Only | Print | Product List | Glossary Off
Versions: 1 2 3 4 5 6 7 8 9 10 11 12 13 14

000
FTUS42 KMHX 181508 AAA
TAFPGV
TAF AMD
KPGV 181508Z 1815/1912 23009KT P6SM BKN200
     FM181800 23010G18KT P6SM FEW250
     FM190300 22012KT P6SM FEW250 WS020/24040KT
     FM191000 23013KT P6SM FEW250
      AMD LTD TO CLD VIS AND WIND=

USA.gov is the U.S. government's official web portal to all federal, state and local government web resources and services.